Nikishka, Alaska
Current Conditions -  °F | °C
As of 10:53 AM on Thursday 18 Dec 2014 (Local Time) from PAEN Reporting Station
Scattered Clouds Scattered Clouds  
Wind Chill: 18°   Ceiling: Unl
Heat Index: 26°   Visibility: 10mi
Dew Point: 23°   Wind: 8mph
Humidity: 88%   Direction: 30°NNE
Pressure: 29.48"   Gusts: NA
Location:  60.7377°N, 151.324°W
Report Text: PAEN 181953Z 03007KT 10SM SCT100 M03/M05 A2948 RMK AO2 SLP984 T10331050
Loading
Personal Weather Stations






























Interactive Weather Map New forecast layout! Learn more

10-Day Weather Forecast

Advertisements
Track Severe Weather on mobile